createdAt,value
2018-07-03T00:00:24.123Z,1.70
2018-07-03T00:02:52.390Z,1.60
2018-07-03T00:05:20.587Z,2.00
2018-07-03T00:07:48.816Z,1.60
2018-07-03T00:10:16.999Z,1.80
2018-07-03T00:12:45.190Z,1.70
2018-07-03T00:15:13.436Z,1.90
2018-07-03T00:17:41.646Z,1.70
2018-07-03T00:20:09.794Z,1.73
2018-07-03T00:22:37.989Z,1.63
2018-07-03T00:25:06.231Z,1.80
2018-07-03T00:27:34.475Z,1.70
2018-07-03T00:30:02.668Z,1.70
2018-07-03T00:32:30.852Z,1.40
2018-07-03T00:34:59.054Z,1.77
2018-07-03T00:37:27.310Z,1.80
2018-07-03T00:39:55.577Z,1.57
2018-07-03T00:42:23.776Z,1.60
2018-07-03T00:44:51.960Z,1.70
2018-07-03T00:47:20.135Z,1.70
2018-07-03T00:49:48.294Z,1.63
2018-07-03T00:52:16.480Z,1.63
2018-07-03T00:54:44.669Z,1.67
2018-07-03T00:57:12.899Z,1.60
2018-07-03T00:59:52.539Z,1.27
2018-07-03T01:02:20.748Z,1.57
2018-07-03T01:04:48.914Z,1.60
2018-07-03T01:07:17.899Z,1.50
2018-07-03T01:09:46.954Z,1.50
2018-07-03T01:12:15.123Z,1.70
2018-07-03T01:14:43.292Z,1.70
2018-07-03T01:17:11.536Z,1.70
2018-07-03T01:19:39.795Z,1.60
2018-07-03T01:22:07.975Z,1.60
2018-07-03T01:24:36.230Z,1.60
2018-07-03T01:27:04.506Z,1.50
2018-07-03T01:29:32.763Z,1.53
2018-07-03T01:32:00.929Z,1.53
2018-07-03T01:34:29.647Z,1.70
2018-07-03T01:36:57.825Z,1.50
2018-07-03T01:39:26.056Z,1.80
2018-07-03T01:41:54.250Z,1.60
2018-07-03T01:44:22.464Z,1.70
2018-07-03T01:46:50.678Z,1.63
2018-07-03T01:49:18.884Z,1.67
2018-07-03T01:51:47.471Z,1.60
2018-07-03T01:54:15.736Z,1.80
2018-07-03T01:56:43.942Z,1.80
2018-07-03T01:59:12.722Z,1.83
2018-07-03T02:01:41.953Z,1.60
2018-07-03T02:04:10.605Z,1.70
2018-07-03T02:06:38.801Z,1.53
2018-07-03T02:09:09.612Z,1.57
2018-07-03T02:11:37.798Z,1.60
2018-07-03T02:14:06.172Z,1.90
2018-07-03T02:16:34.419Z,1.77
2018-07-03T02:19:02.664Z,1.80
2018-07-03T02:21:30.879Z,1.80
2018-07-03T02:23:59.203Z,1.70
2018-07-03T02:26:27.419Z,1.60
2018-07-03T02:28:55.596Z,1.47
2018-07-03T02:31:24.102Z,1.60
2018-07-03T02:33:53.186Z,1.30
2018-07-03T02:36:21.448Z,1.27
2018-07-03T02:38:49.667Z,1.40
2018-07-03T02:41:17.882Z,1.40
2018-07-03T02:43:46.059Z,1.23
2018-07-03T02:46:14.271Z,1.50
2018-07-03T02:48:42.438Z,1.80
2018-07-03T02:51:10.602Z,1.63
2018-07-03T02:53:38.765Z,1.70
2018-07-03T02:56:06.950Z,1.50
2018-07-03T02:58:35.204Z,1.70
2018-07-03T03:01:03.364Z,1.50
2018-07-03T03:03:31.540Z,1.80
2018-07-03T03:05:59.748Z,1.77
2018-07-03T03:08:28.144Z,1.60
2018-07-03T03:10:56.484Z,1.50
2018-07-03T03:13:24.724Z,1.60
2018-07-03T03:15:52.953Z,1.60
2018-07-03T03:18:21.163Z,1.60
2018-07-03T03:20:49.413Z,1.53
2018-07-03T03:23:18.469Z,1.30
2018-07-03T03:25:46.674Z,1.50
2018-07-03T03:28:14.911Z,1.60
2018-07-03T03:30:43.221Z,1.37
2018-07-03T03:33:11.434Z,1.50
2018-07-03T03:35:39.628Z,1.50
2018-07-03T03:38:07.848Z,1.57
2018-07-03T03:40:36.123Z,1.37
2018-07-03T03:43:04.324Z,1.40
2018-07-03T03:45:32.562Z,1.33
2018-07-03T03:48:00.766Z,1.70
2018-07-03T03:50:28.705Z,1.53
2018-07-03T03:52:56.971Z,1.60
2018-07-03T03:55:25.163Z,1.60
2018-07-03T03:57:53.388Z,1.50
2018-07-03T04:00:21.572Z,1.33
2018-07-03T04:02:49.778Z,1.70
2018-07-03T04:05:18.022Z,1.70
2018-07-03T04:07:46.343Z,1.40
2018-07-03T04:10:14.553Z,1.53
2018-07-03T04:12:42.771Z,1.70
2018-07-03T04:15:11.092Z,1.40
2018-07-03T04:17:39.283Z,1.70
2018-07-03T04:20:08.031Z,1.63
2018-07-03T04:22:36.620Z,1.97
2018-07-03T04:25:04.847Z,1.60
2018-07-03T04:27:33.226Z,1.77
2018-07-03T04:30:01.488Z,1.40
2018-07-03T04:32:29.675Z,1.50
2018-07-03T04:34:57.893Z,1.60
2018-07-03T04:37:26.104Z,1.50
2018-07-03T04:39:54.336Z,1.83
2018-07-03T04:42:22.679Z,1.90
2018-07-03T04:44:50.887Z,1.70
2018-07-03T04:47:19.084Z,1.77
2018-07-03T04:49:47.359Z,1.50
2018-07-03T04:52:15.562Z,1.50
2018-07-03T04:54:44.015Z,1.53
2018-07-03T04:57:12.245Z,1.77
2018-07-03T04:59:40.492Z,1.77
2018-07-03T05:02:08.800Z,1.60
2018-07-03T05:04:37.006Z,1.50
2018-07-03T05:07:04.986Z,1.60
2018-07-03T05:09:33.215Z,1.50
2018-07-03T05:12:01.522Z,1.50
2018-07-03T05:14:29.845Z,1.30
2018-07-03T05:16:58.970Z,1.50
2018-07-03T05:19:29.100Z,1.10
2018-07-03T05:21:57.276Z,1.40
2018-07-03T05:24:25.529Z,1.43
2018-07-03T05:26:54.463Z,1.30
2018-07-03T05:29:22.649Z,1.30
2018-07-03T05:31:51.124Z,2.07
2018-07-03T05:34:19.348Z,1.17
2018-07-03T05:36:50.996Z,1.10
2018-07-03T05:39:19.239Z,1.20
2018-07-03T05:41:47.480Z,1.00
2018-07-03T05:44:15.696Z,1.07
2018-07-03T05:46:43.914Z,1.20
2018-07-03T05:49:12.142Z,1.20
2018-07-03T05:51:40.428Z,1.10
2018-07-03T05:54:08.633Z,1.00
2018-07-03T05:56:36.929Z,1.20
2018-07-03T05:59:05.092Z,1.17
2018-07-03T06:01:33.270Z,1.10
2018-07-03T06:04:08.778Z,1.10
2018-07-03T06:06:38.706Z,1.30
2018-07-03T06:09:09.625Z,1.17
2018-07-03T06:11:55.948Z,1.20
2018-07-03T06:17:11.619Z,1.40
2018-07-03T06:19:41.121Z,1.40
2018-07-03T06:22:09.456Z,1.10
2018-07-03T06:24:37.794Z,1.20
2018-07-03T06:27:06.180Z,1.30
2018-07-03T06:29:34.480Z,1.00
2018-07-03T06:32:02.762Z,1.10
2018-07-03T06:34:31.620Z,1.20
2018-07-03T06:36:59.842Z,1.27
2018-07-03T06:39:28.317Z,1.20
2018-07-03T06:41:56.571Z,1.00
2018-07-03T06:44:24.859Z,1.20
2018-07-03T06:46:53.483Z,1.03
2018-07-03T06:49:22.112Z,1.20
2018-07-03T06:51:50.482Z,1.47
2018-07-03T06:54:18.655Z,1.10
2018-07-03T06:56:46.860Z,1.20
2018-07-03T06:59:15.096Z,1.07
2018-07-03T07:01:43.456Z,1.40
2018-07-03T07:04:11.686Z,1.17
2018-07-03T07:06:39.801Z,1.30
2018-07-03T07:09:09.191Z,1.20
2018-07-03T07:11:37.276Z,1.50
2018-07-03T07:14:05.582Z,1.30
2018-07-03T07:16:33.778Z,1.37
2018-07-03T07:19:01.974Z,1.13
2018-07-03T07:21:30.151Z,1.10
2018-07-03T07:23:58.392Z,1.23
2018-07-03T07:26:26.600Z,1.10
2018-07-03T07:28:54.924Z,1.20
2018-07-03T07:31:23.296Z,1.27
2018-07-03T07:33:51.475Z,1.50
2018-07-03T07:36:20.548Z,1.20
2018-07-03T07:38:48.772Z,1.20
2018-07-03T07:41:17.215Z,1.33
2018-07-03T07:43:45.457Z,1.30
2018-07-03T07:46:13.635Z,1.50
2018-07-03T07:48:41.844Z,1.37
2018-07-03T07:51:10.187Z,1.20
2018-07-03T07:53:38.358Z,1.30
2018-07-03T07:56:06.574Z,1.20
2018-07-03T07:58:34.738Z,1.30
2018-07-03T08:01:02.976Z,1.20
2018-07-03T08:03:31.160Z,1.07
2018-07-03T08:05:59.534Z,1.13
2018-07-03T08:08:27.746Z,1.40
2018-07-03T08:10:55.996Z,1.20
2018-07-03T08:13:24.274Z,1.40
2018-07-03T08:15:52.474Z,1.10
2018-07-03T08:18:20.703Z,1.10
2018-07-03T08:20:48.958Z,1.30
2018-07-03T08:23:17.146Z,1.23
2018-07-03T08:25:45.403Z,1.10
2018-07-03T08:28:13.611Z,1.17
2018-07-03T08:30:41.857Z,1.30
2018-07-03T08:33:12.071Z,1.00
2018-07-03T08:35:40.381Z,1.03
2018-07-03T08:38:09.042Z,1.27
2018-07-03T08:40:37.217Z,1.10
2018-07-03T08:43:05.766Z,1.07
2018-07-03T08:45:34.148Z,1.00
2018-07-03T08:48:02.432Z,1.20
2018-07-03T08:50:30.394Z,1.20
2018-07-03T08:52:58.667Z,0.90
2018-07-03T08:55:26.934Z,1.00
2018-07-03T08:57:55.201Z,1.20
2018-07-03T09:00:23.413Z,1.10
2018-07-03T09:02:51.674Z,1.10
2018-07-03T09:05:19.950Z,1.10
2018-07-03T09:07:48.207Z,1.20
2018-07-03T09:10:16.426Z,1.07
2018-07-03T09:12:44.691Z,1.10
2018-07-03T09:15:12.932Z,1.10
2018-07-03T09:17:41.130Z,1.30
2018-07-03T09:20:09.352Z,1.10
2018-07-03T09:22:37.567Z,1.10
2018-07-03T09:25:05.785Z,0.83
2018-07-03T09:27:34.075Z,1.10
2018-07-03T09:30:02.338Z,1.10
2018-07-03T09:32:30.627Z,1.20
2018-07-03T09:34:58.838Z,1.20
2018-07-03T09:37:27.031Z,0.80
2018-07-03T09:39:55.230Z,0.90
2018-07-03T09:42:23.506Z,0.90
2018-07-03T09:44:51.675Z,1.13
2018-07-03T09:47:20.012Z,1.20
2018-07-03T09:49:48.203Z,1.40
2018-07-03T09:52:16.403Z,1.00
2018-07-03T09:54:44.622Z,0.83
2018-07-03T09:57:12.807Z,1.00
2018-07-03T09:59:52.311Z,1.20
2018-07-03T10:02:20.935Z,1.20
2018-07-03T10:04:49.130Z,1.43
2018-07-03T10:07:17.286Z,1.20
2018-07-03T10:09:46.504Z,1.20
2018-07-03T10:12:14.728Z,1.27
2018-07-03T10:14:43.011Z,1.20
2018-07-03T10:17:12.239Z,1.17
2018-07-03T10:19:41.370Z,1.07
2018-07-03T10:22:09.580Z,1.10
2018-07-03T10:24:37.781Z,1.30
2018-07-03T10:27:06.088Z,1.00
2018-07-03T10:29:34.290Z,1.00
2018-07-03T10:32:02.528Z,0.97
2018-07-03T10:34:30.763Z,1.20
2018-07-03T10:36:59.002Z,1.10
2018-07-03T10:39:27.209Z,1.10
2018-07-03T10:41:55.490Z,0.90
2018-07-03T10:44:23.464Z,1.10
2018-07-03T10:46:51.442Z,1.13
2018-07-03T10:49:19.624Z,1.13
2018-07-03T10:51:47.852Z,1.20
2018-07-03T10:54:16.095Z,1.20
2018-07-03T10:56:44.291Z,1.27
2018-07-03T10:59:12.492Z,1.00
2018-07-03T11:01:40.739Z,1.10
2018-07-03T11:04:08.957Z,1.00
2018-07-03T11:06:37.407Z,1.10
2018-07-03T11:09:08.788Z,1.10
2018-07-03T11:11:37.019Z,1.10
2018-07-03T11:14:08.734Z,1.13
2018-07-03T11:16:36.859Z,1.10
2018-07-03T11:19:06.102Z,0.90
2018-07-03T11:21:34.407Z,1.00
2018-07-03T11:24:02.608Z,1.13
2018-07-03T11:26:31.047Z,1.00
2018-07-03T11:28:59.395Z,1.00
2018-07-03T11:31:27.633Z,1.00
2018-07-03T11:33:55.870Z,1.13
2018-07-03T11:36:24.174Z,1.00
2018-07-03T11:38:52.446Z,1.10
2018-07-03T11:41:20.809Z,1.20
2018-07-03T11:43:49.075Z,0.93
2018-07-03T11:46:17.312Z,1.10
2018-07-03T11:48:45.591Z,1.30
2018-07-03T11:51:13.803Z,1.03
2018-07-03T11:53:42.105Z,1.20
2018-07-03T11:56:10.299Z,1.13
2018-07-03T11:58:38.518Z,1.03
2018-07-03T12:01:06.864Z,1.30
2018-07-03T12:03:35.121Z,1.03
2018-07-03T12:06:03.354Z,1.17
2018-07-03T12:08:31.613Z,1.10
2018-07-03T12:10:59.845Z,1.17
2018-07-03T12:13:28.059Z,1.40
2018-07-03T12:15:56.288Z,1.10
2018-07-03T12:18:29.824Z,1.20
2018-07-03T12:20:58.075Z,1.10
2018-07-03T12:23:26.072Z,1.00
2018-07-03T12:25:54.329Z,1.00
2018-07-03T12:28:22.523Z,1.10
2018-07-03T12:30:50.735Z,1.10
2018-07-03T12:33:18.997Z,1.10
2018-07-03T12:35:47.213Z,1.23
2018-07-03T12:38:15.419Z,1.20
2018-07-03T12:40:43.619Z,1.10
2018-07-03T12:43:11.837Z,1.03
2018-07-03T12:45:40.027Z,1.13
2018-07-03T12:48:08.233Z,1.30
2018-07-03T12:50:36.476Z,1.30
2018-07-03T12:53:04.845Z,1.07
2018-07-03T12:55:33.115Z,1.20
2018-07-03T12:58:02.739Z,1.40
2018-07-03T13:00:30.937Z,1.20
2018-07-03T13:02:59.137Z,1.33
2018-07-03T13:05:27.405Z,1.10
2018-07-03T13:07:55.600Z,1.13
2018-07-03T13:10:23.919Z,1.20
2018-07-03T13:12:52.131Z,1.10
2018-07-03T13:15:20.386Z,1.20
2018-07-03T13:17:48.592Z,1.13
2018-07-03T13:20:16.831Z,1.10
2018-07-03T13:22:45.190Z,1.40
2018-07-03T13:25:13.648Z,1.10
2018-07-03T13:27:41.867Z,1.10
2018-07-03T13:30:10.717Z,1.27
2018-07-03T13:32:38.927Z,1.30
2018-07-03T13:35:08.552Z,1.23
2018-07-03T13:37:36.811Z,1.10
2018-07-03T13:40:06.022Z,1.20
2018-07-03T13:42:34.283Z,1.20
2018-07-03T13:45:02.583Z,1.20
2018-07-03T13:47:30.784Z,1.07
2018-07-03T13:49:58.974Z,1.20
2018-07-03T13:52:27.197Z,1.20
2018-07-03T13:54:55.389Z,1.60
2018-07-03T13:57:23.575Z,1.20
2018-07-03T13:59:51.727Z,1.30
2018-07-03T14:02:20.010Z,1.27
2018-07-03T14:04:48.273Z,1.30
2018-07-03T14:07:16.444Z,1.30
2018-07-03T14:09:44.697Z,1.50
2018-07-03T14:12:12.891Z,1.20
2018-07-03T14:14:41.100Z,1.40
2018-07-03T14:17:09.354Z,1.10
2018-07-03T14:19:37.504Z,1.20
2018-07-03T14:22:05.737Z,1.10
2018-07-03T14:24:34.871Z,1.47
2018-07-03T14:27:03.070Z,1.13
2018-07-03T14:29:31.248Z,1.10
2018-07-03T14:31:59.503Z,1.23
2018-07-03T14:34:27.687Z,1.20
2018-07-03T14:36:55.876Z,1.10
2018-07-03T14:39:24.076Z,1.47
2018-07-03T14:41:52.447Z,1.53
2018-07-03T14:44:21.719Z,1.20
2018-07-03T14:46:49.919Z,1.30
2018-07-03T14:49:18.151Z,1.23
2018-07-03T14:51:46.338Z,1.30
2018-07-03T14:54:14.640Z,1.40
2018-07-03T14:56:42.945Z,1.50
2018-07-03T14:59:11.506Z,1.20
2018-07-03T15:01:39.735Z,1.30
2018-07-03T15:04:08.140Z,1.20
2018-07-03T15:06:36.312Z,1.30
2018-07-03T15:09:07.525Z,1.27
2018-07-03T15:11:35.732Z,1.40
2018-07-03T15:14:03.890Z,1.63
2018-07-03T15:16:32.153Z,1.40
2018-07-03T15:19:05.837Z,1.10
2018-07-03T15:21:34.059Z,1.40
2018-07-03T15:24:02.497Z,1.20
2018-07-03T15:26:30.719Z,1.27
2018-07-03T15:28:58.941Z,1.20
2018-07-03T15:31:27.147Z,1.30
2018-07-03T15:33:55.389Z,1.13
2018-07-03T15:36:23.559Z,1.27
2018-07-03T15:38:51.794Z,1.30
2018-07-03T15:41:19.957Z,1.30
2018-07-03T15:43:59.448Z,1.40
2018-07-03T15:46:27.626Z,1.70
2018-07-03T15:48:55.976Z,1.30
2018-07-03T15:51:24.195Z,1.47
2018-07-03T15:53:52.611Z,1.40
2018-07-03T15:56:21.004Z,1.40
2018-07-03T15:58:49.154Z,1.20
2018-07-03T16:01:17.362Z,1.43
2018-07-03T16:04:06.970Z,1.30
2018-07-03T16:07:07.336Z,1.40
2018-07-03T16:09:35.636Z,1.30
2018-07-03T16:12:03.868Z,1.40
2018-07-03T16:14:32.112Z,1.30
2018-07-03T16:17:00.283Z,1.20
2018-07-03T16:19:33.938Z,1.40
2018-07-03T16:22:02.164Z,1.30
2018-07-03T16:24:30.357Z,1.20
2018-07-03T16:26:58.561Z,1.23
2018-07-03T16:29:27.169Z,1.20
2018-07-03T16:31:55.536Z,1.20
2018-07-03T16:34:23.876Z,1.17
2018-07-03T16:36:52.211Z,1.20
2018-07-03T16:39:20.456Z,1.20
2018-07-03T16:41:49.029Z,1.30
2018-07-03T16:44:17.441Z,1.50
2018-07-03T16:46:46.718Z,1.60
2018-07-03T16:49:14.968Z,1.30
2018-07-03T16:51:43.610Z,1.30
2018-07-03T16:54:11.851Z,1.20
2018-07-03T16:56:40.130Z,1.17
2018-07-03T16:59:08.326Z,1.20
2018-07-03T17:01:37.909Z,1.30
2018-07-03T17:04:06.350Z,1.40
2018-07-03T17:06:36.724Z,1.33
2018-07-03T17:09:09.049Z,1.50
2018-07-03T17:11:38.013Z,1.30
2018-07-03T17:14:08.202Z,1.33
2018-07-03T17:16:36.760Z,1.10
2018-07-03T17:19:11.335Z,1.50
2018-07-03T17:21:39.687Z,0.93
2018-07-03T17:24:08.055Z,1.17
2018-07-03T17:26:36.467Z,1.30
2018-07-03T17:29:05.117Z,1.20
2018-07-03T17:31:33.213Z,1.30
2018-07-03T17:34:02.065Z,1.10
2018-07-03T17:36:30.795Z,1.10
2018-07-03T17:39:09.918Z,1.30
2018-07-03T17:41:49.527Z,1.20
2018-07-03T17:44:32.278Z,1.10
2018-07-03T17:47:00.548Z,1.40
2018-07-03T17:49:28.760Z,1.40
2018-07-03T17:51:57.071Z,1.10
2018-07-03T17:54:25.281Z,1.30
2018-07-03T17:56:53.509Z,1.00
2018-07-03T17:59:21.747Z,1.07
2018-07-03T18:01:50.072Z,1.10
2018-07-03T18:04:19.079Z,1.20
2018-07-03T18:06:48.307Z,1.00
2018-07-03T18:09:17.309Z,1.30
2018-07-03T18:11:46.672Z,1.27
2018-07-03T18:14:16.071Z,1.30
2018-07-03T18:16:44.741Z,1.30
2018-07-03T18:19:20.485Z,1.20
2018-07-03T18:21:48.975Z,1.20
2018-07-03T18:24:17.300Z,1.40
2018-07-03T18:26:48.281Z,1.10
2018-07-03T18:29:16.883Z,1.30
2018-07-03T18:31:45.285Z,1.20
2018-07-03T18:34:13.817Z,1.20
2018-07-03T18:36:42.853Z,1.30
2018-07-03T18:39:18.732Z,1.10
2018-07-03T18:41:46.971Z,1.33
2018-07-03T18:44:15.240Z,1.40
2018-07-03T18:46:43.595Z,1.60
2018-07-03T18:49:11.878Z,1.30
2018-07-03T18:51:40.596Z,1.53
2018-07-03T18:54:08.944Z,1.23
2018-07-03T18:56:38.892Z,1.60
2018-07-03T18:59:07.148Z,1.50
2018-07-03T19:01:35.474Z,1.40
2018-07-03T19:04:04.060Z,1.30
2018-07-03T19:06:32.437Z,1.37
2018-07-03T19:09:00.737Z,1.40
2018-07-03T19:11:29.066Z,1.60
2018-07-03T19:13:57.418Z,1.67
2018-07-03T19:16:25.795Z,1.30
2018-07-03T19:18:54.068Z,1.20
2018-07-03T19:21:22.321Z,1.37
2018-07-03T19:23:50.533Z,1.20
2018-07-03T19:26:24.449Z,1.10
2018-07-03T19:29:12.866Z,1.47
2018-07-03T19:31:41.092Z,1.27
2018-07-03T19:34:09.409Z,1.50
2018-07-03T19:36:37.622Z,1.30
2018-07-03T19:39:08.927Z,1.40
2018-07-03T19:41:36.878Z,1.50
2018-07-03T19:44:05.358Z,1.37
2018-07-03T19:46:33.693Z,1.37
2018-07-03T19:54:51.968Z,1.50
2018-07-03T19:57:20.216Z,1.40
2018-07-03T19:59:49.056Z,1.80
2018-07-03T20:02:17.372Z,1.23
2018-07-03T20:04:45.801Z,1.60
2018-07-03T20:07:14.131Z,1.50
2018-07-03T20:09:42.460Z,1.50
2018-07-03T20:12:10.737Z,1.50
2018-07-03T20:14:39.078Z,1.40
2018-07-03T20:17:11.967Z,1.50
2018-07-03T20:19:40.256Z,1.47
2018-07-03T20:22:14.295Z,1.30
2018-07-03T20:24:42.578Z,1.50
2018-07-03T20:27:18.321Z,1.30
2018-07-03T20:29:53.470Z,1.53
2018-07-03T20:32:21.707Z,1.40
2018-07-03T20:34:49.914Z,1.40
2018-07-03T20:37:18.444Z,1.50
2018-07-03T20:42:53.516Z,1.40
2018-07-03T20:45:21.885Z,1.50
2018-07-03T20:47:50.129Z,1.37
2018-07-03T20:50:19.132Z,1.30
2018-07-03T20:52:47.540Z,1.50
2018-07-03T20:55:16.416Z,1.40
2018-07-03T20:57:45.950Z,1.40
2018-07-03T21:00:28.951Z,1.30
2018-07-03T21:02:57.250Z,1.60
2018-07-03T21:05:25.523Z,1.90
2018-07-03T21:07:53.875Z,1.67
2018-07-03T21:10:22.368Z,1.50
2018-07-03T21:12:50.579Z,1.50
2018-07-03T21:15:18.811Z,1.50
2018-07-03T21:17:47.082Z,1.50
2018-07-03T21:20:15.302Z,1.60
2018-07-03T21:22:43.503Z,1.60
2018-07-03T21:25:11.739Z,1.70
2018-07-03T21:27:40.209Z,1.40
2018-07-03T21:30:08.419Z,1.40
2018-07-03T21:32:36.382Z,1.70
2018-07-03T21:35:04.905Z,1.50
2018-07-03T21:37:33.202Z,1.60
2018-07-03T21:40:01.532Z,1.60
2018-07-03T21:42:30.047Z,1.70
2018-07-03T21:44:58.265Z,1.70
2018-07-03T21:47:27.045Z,1.70
2018-07-03T21:49:55.335Z,1.70
2018-07-03T21:52:23.637Z,1.70
2018-07-03T21:54:55.059Z,1.80
2018-07-03T21:57:23.310Z,1.80
2018-07-03T21:59:51.640Z,1.80
2018-07-03T22:02:24.086Z,1.70
2018-07-03T22:04:52.352Z,1.80
2018-07-03T22:07:20.626Z,1.60
2018-07-03T22:09:48.809Z,1.50
2018-07-03T22:12:17.077Z,1.73
2018-07-03T22:14:45.363Z,1.87
2018-07-03T22:17:13.599Z,1.73
2018-07-03T22:20:04.875Z,1.80
2018-07-03T22:22:33.154Z,1.70
2018-07-03T22:25:01.391Z,1.97
2018-07-03T22:27:29.576Z,2.00
2018-07-03T22:29:57.771Z,2.17
2018-07-03T22:35:25.384Z,1.83
2018-07-03T22:38:12.107Z,1.53
2018-07-03T22:43:46.058Z,2.00
2018-07-03T22:46:15.239Z,1.70
2018-07-03T22:48:43.531Z,1.80
2018-07-03T22:51:11.704Z,1.57
2018-07-03T22:53:39.911Z,1.80
2018-07-03T22:56:08.178Z,1.60
2018-07-03T22:58:36.457Z,1.70
2018-07-03T23:01:04.684Z,1.87
2018-07-03T23:03:32.926Z,1.70
2018-07-03T23:06:01.344Z,1.60
2018-07-03T23:08:29.682Z,1.70
2018-07-03T23:10:57.992Z,1.60
2018-07-03T23:13:26.215Z,1.90
2018-07-03T23:15:54.455Z,1.70
2018-07-03T23:18:22.627Z,1.87
2018-07-03T23:20:50.828Z,2.20
2018-07-03T23:23:19.018Z,2.10
2018-07-03T23:25:47.213Z,2.00
2018-07-03T23:28:15.383Z,2.07
2018-07-03T23:30:43.590Z,1.90
2018-07-03T23:33:11.828Z,2.50
2018-07-03T23:35:40.028Z,2.37
2018-07-03T23:38:08.263Z,1.93
2018-07-03T23:40:36.509Z,2.40
2018-07-03T23:43:04.677Z,2.10
2018-07-03T23:45:38.844Z,1.93
2018-07-03T23:48:18.405Z,2.20
2018-07-03T23:50:58.128Z,2.50
2018-07-03T23:53:37.804Z,2.10
2018-07-03T23:56:17.248Z,2.13
2018-07-03T23:58:56.856Z,2.13
